createdAt,value
2019-01-13T00:00:31.996Z,7.50
2019-01-13T00:03:00.477Z,7.50
2019-01-13T00:05:28.899Z,7.50
2019-01-13T00:07:57.321Z,7.50
2019-01-13T00:10:25.769Z,7.40
2019-01-13T00:12:54.162Z,7.50
2019-01-13T00:15:22.470Z,7.40
2019-01-13T00:17:50.774Z,7.50
2019-01-13T00:20:19.171Z,7.50
2019-01-13T00:22:47.697Z,7.50
2019-01-13T00:25:16.218Z,7.60
2019-01-13T00:27:44.525Z,7.50
2019-01-13T00:30:19.387Z,7.50
2019-01-13T00:32:48.072Z,7.50
2019-01-13T00:35:16.681Z,7.50
2019-01-13T00:37:45.058Z,7.40
2019-01-13T00:40:17.944Z,7.40
2019-01-13T00:42:46.284Z,7.40
2019-01-13T00:45:15.508Z,7.50
2019-01-13T00:47:43.895Z,7.50
2019-01-13T00:50:14.038Z,7.50
2019-01-13T00:52:42.395Z,7.50
2019-01-13T00:55:12.362Z,7.60
2019-01-13T00:57:40.698Z,7.60
2019-01-13T01:00:15.225Z,7.70
2019-01-13T01:02:43.604Z,7.70
2019-01-13T01:05:11.888Z,7.70
2019-01-13T01:07:40.360Z,7.70
2019-01-13T01:10:14.387Z,7.80
2019-01-13T01:12:42.696Z,7.90
2019-01-13T01:15:11.570Z,7.90
2019-01-13T01:17:39.848Z,7.90
2019-01-13T01:20:13.694Z,7.80
2019-01-13T01:22:42.221Z,7.90
2019-01-13T01:25:12.276Z,7.90
2019-01-13T01:27:40.665Z,7.90
2019-01-13T01:30:12.713Z,8.00
2019-01-13T01:32:41.098Z,8.00
2019-01-13T01:35:09.482Z,8.00
2019-01-13T01:37:37.824Z,8.00
2019-01-13T01:40:09.396Z,8.00
2019-01-13T01:42:37.758Z,8.00
2019-01-13T01:45:08.601Z,8.00
2019-01-13T01:47:36.970Z,8.00
2019-01-13T01:50:07.904Z,8.00
2019-01-13T01:52:36.190Z,8.00
2019-01-13T01:55:06.866Z,8.10
2019-01-13T01:57:35.207Z,8.00
2019-01-13T02:00:06.388Z,8.10
2019-01-13T02:02:34.742Z,8.20
2019-01-13T02:05:03.119Z,8.20
2019-01-13T02:07:31.438Z,8.20
2019-01-13T02:09:59.787Z,8.10
2019-01-13T02:12:28.267Z,8.10
2019-01-13T02:14:56.546Z,8.10
2019-01-13T02:17:24.853Z,8.10
2019-01-13T02:19:53.202Z,8.10
2019-01-13T02:22:21.521Z,8.10
2019-01-13T02:24:49.953Z,8.10
2019-01-13T02:27:18.359Z,8.00
2019-01-13T02:29:46.667Z,8.10
2019-01-13T02:32:15.019Z,8.10
2019-01-13T02:34:43.390Z,8.10
2019-01-13T02:37:11.674Z,8.10
2019-01-13T02:39:40.098Z,8.00
2019-01-13T02:42:08.483Z,8.00
2019-01-13T02:44:36.857Z,8.00
2019-01-13T02:47:05.242Z,8.10
2019-01-13T02:49:33.622Z,8.10
2019-01-13T02:52:01.923Z,8.10
2019-01-13T02:54:30.205Z,8.10
2019-01-13T02:56:58.611Z,8.20
2019-01-13T02:59:27.130Z,8.20
2019-01-13T03:01:55.420Z,8.20
2019-01-13T03:04:23.813Z,8.20
2019-01-13T03:06:52.200Z,8.30
2019-01-13T03:09:20.607Z,8.30
2019-01-13T03:11:49.046Z,8.30
2019-01-13T03:14:17.337Z,8.40
2019-01-13T03:16:45.655Z,8.40
2019-01-13T03:19:14.034Z,8.50
2019-01-13T03:21:42.448Z,8.50
2019-01-13T03:24:10.840Z,8.50
2019-01-13T03:26:39.218Z,8.50
2019-01-13T03:29:07.607Z,8.50
2019-01-13T03:31:36.024Z,8.50
2019-01-13T03:34:04.349Z,8.60
2019-01-13T03:36:32.654Z,8.60
2019-01-13T03:39:01.040Z,8.60
2019-01-13T03:41:29.457Z,8.60
2019-01-13T03:43:57.766Z,8.70
2019-01-13T03:46:26.145Z,8.60
2019-01-13T03:48:54.519Z,8.70
2019-01-13T03:51:22.806Z,8.70
2019-01-13T03:53:51.250Z,8.70
2019-01-13T03:56:19.695Z,8.60
2019-01-13T03:58:48.007Z,8.60
2019-01-13T04:01:18.659Z,8.60
2019-01-13T04:03:46.523Z,8.70
2019-01-13T04:06:14.892Z,8.60
2019-01-13T04:08:43.197Z,8.60
2019-01-13T04:11:12.430Z,8.70
2019-01-13T04:13:40.797Z,8.70
2019-01-13T04:16:09.173Z,8.70
2019-01-13T04:18:37.535Z,8.70
2019-01-13T04:21:06.014Z,8.80
2019-01-13T04:23:34.373Z,8.70
2019-01-13T04:26:02.753Z,8.70
2019-01-13T04:28:31.213Z,8.70
2019-01-13T04:30:59.612Z,8.70
2019-01-13T04:33:27.976Z,8.80
2019-01-13T04:35:56.373Z,8.80
2019-01-13T04:38:24.744Z,8.80
2019-01-13T04:40:53.385Z,8.80
2019-01-13T04:43:21.753Z,8.70
2019-01-13T04:45:50.120Z,8.70
2019-01-13T04:48:18.490Z,8.70
2019-01-13T04:50:47.055Z,8.70
2019-01-13T04:53:15.427Z,8.60
2019-01-13T04:55:43.799Z,8.70
2019-01-13T04:58:12.159Z,8.60
2019-01-13T05:00:40.550Z,8.60
2019-01-13T05:03:08.909Z,8.70
2019-01-13T05:05:37.293Z,8.70
2019-01-13T05:08:05.643Z,8.70
2019-01-13T05:10:34.016Z,8.80
2019-01-13T05:13:02.517Z,8.70
2019-01-13T05:15:30.913Z,8.70
2019-01-13T05:17:59.226Z,8.60
2019-01-13T05:20:27.702Z,8.60
2019-01-13T05:22:56.777Z,8.60
2019-01-13T05:25:25.242Z,8.70
2019-01-13T05:27:53.537Z,8.70
2019-01-13T05:30:22.283Z,8.70
2019-01-13T05:32:50.604Z,8.70
2019-01-13T05:35:18.980Z,8.70
2019-01-13T05:37:47.338Z,8.70
2019-01-13T05:40:17.380Z,8.70
2019-01-13T05:42:45.731Z,8.70
2019-01-13T05:45:16.045Z,8.70
2019-01-13T05:47:44.428Z,8.80
2019-01-13T05:50:14.429Z,8.80
2019-01-13T05:52:43.735Z,8.80
2019-01-13T05:55:12.280Z,8.80
2019-01-13T05:57:40.568Z,8.70
2019-01-13T06:00:12.280Z,8.70
2019-01-13T06:02:40.628Z,8.70
2019-01-13T06:05:08.911Z,8.70
2019-01-13T06:07:37.238Z,8.70
2019-01-13T06:10:08.969Z,8.80
2019-01-13T06:12:37.317Z,8.80
2019-01-13T06:15:08.586Z,8.90
2019-01-13T06:17:37.040Z,8.90
2019-01-13T06:20:08.668Z,8.90
2019-01-13T06:22:37.103Z,9.00
2019-01-13T06:25:06.067Z,9.00
2019-01-13T06:27:34.431Z,9.00
2019-01-13T06:30:02.810Z,9.00
2019-01-13T06:32:31.184Z,9.00
2019-01-13T06:34:59.560Z,9.00
2019-01-13T06:37:27.829Z,9.00
2019-01-13T06:39:56.221Z,9.10
2019-01-13T06:42:24.528Z,9.00
2019-01-13T06:44:52.994Z,9.00
2019-01-13T06:47:21.360Z,9.00
2019-01-13T06:49:49.746Z,9.00
2019-01-13T06:52:18.018Z,9.00
2019-01-13T06:54:46.342Z,9.10
2019-01-13T06:57:14.700Z,9.00
2019-01-13T06:59:42.986Z,9.10
2019-01-13T07:02:11.328Z,9.10
2019-01-13T07:04:39.654Z,9.10
2019-01-13T07:07:08.012Z,9.10
2019-01-13T07:09:36.418Z,9.10
2019-01-13T07:12:04.750Z,9.20
2019-01-13T07:14:33.052Z,9.20
2019-01-13T07:17:01.409Z,9.20
2019-01-13T07:19:29.711Z,9.20
2019-01-13T07:21:57.994Z,9.20
2019-01-13T07:24:26.484Z,9.30
2019-01-13T07:26:54.848Z,9.30
2019-01-13T07:29:23.233Z,9.20
2019-01-13T07:31:51.589Z,9.30
2019-01-13T07:34:39.406Z,9.20
2019-01-13T07:37:07.777Z,9.20
2019-01-13T07:39:36.153Z,9.30
2019-01-13T07:42:04.533Z,9.20
2019-01-13T07:44:32.918Z,9.20
2019-01-13T07:47:01.287Z,9.20
2019-01-13T07:49:29.658Z,9.20
2019-01-13T07:51:57.936Z,9.20
2019-01-13T07:54:26.302Z,9.20
2019-01-13T07:56:54.779Z,9.20
2019-01-13T07:59:23.170Z,9.20
2019-01-13T08:01:51.548Z,9.20
2019-01-13T08:04:19.915Z,9.20
2019-01-13T08:06:48.322Z,9.30
2019-01-13T08:09:16.713Z,9.20
2019-01-13T08:11:45.073Z,9.20
2019-01-13T08:14:13.363Z,9.20
2019-01-13T08:16:41.729Z,9.10
2019-01-13T08:19:10.016Z,9.20
2019-01-13T08:21:38.387Z,9.20
2019-01-13T08:24:06.695Z,9.20
2019-01-13T08:26:35.081Z,9.20
2019-01-13T08:29:03.460Z,9.20
2019-01-13T08:31:31.832Z,9.20
2019-01-13T08:34:00.127Z,9.20
2019-01-13T08:36:28.451Z,9.20
2019-01-13T08:38:56.765Z,9.20
2019-01-13T08:41:25.134Z,9.20
2019-01-13T08:43:53.503Z,9.30
2019-01-13T08:46:21.889Z,9.20
2019-01-13T08:48:50.210Z,9.20
2019-01-13T08:51:18.579Z,9.30
2019-01-13T08:53:46.945Z,9.30
2019-01-13T08:56:15.328Z,9.30
2019-01-13T08:58:43.695Z,9.30
2019-01-13T09:01:12.084Z,9.30
2019-01-13T09:03:40.453Z,9.30
2019-01-13T09:06:08.886Z,9.40
2019-01-13T09:08:37.262Z,9.40
2019-01-13T09:11:05.650Z,9.40
2019-01-13T09:13:34.033Z,9.40
2019-01-13T09:16:02.405Z,9.40
2019-01-13T09:18:30.763Z,9.50
2019-01-13T09:20:59.048Z,9.50
2019-01-13T09:23:27.339Z,9.50
2019-01-13T09:25:55.696Z,9.60
2019-01-13T09:28:24.014Z,9.60
2019-01-13T09:30:52.380Z,9.60
2019-01-13T09:33:20.679Z,9.60
2019-01-13T09:35:49.080Z,9.60
2019-01-13T09:38:17.445Z,9.60
2019-01-13T09:40:45.799Z,9.60
2019-01-13T09:43:14.183Z,9.60
2019-01-13T09:45:42.545Z,9.60
2019-01-13T09:48:10.831Z,9.60
2019-01-13T09:50:39.139Z,9.60
2019-01-13T09:53:07.453Z,9.60
2019-01-13T09:55:35.833Z,9.60
2019-01-13T09:58:04.208Z,9.60
2019-01-13T10:00:34.064Z,9.60
2019-01-13T10:03:04.093Z,9.60
2019-01-13T10:05:32.597Z,9.60
2019-01-13T10:08:00.970Z,9.60
2019-01-13T10:10:29.341Z,9.70
2019-01-13T10:12:57.650Z,9.70
2019-01-13T10:15:27.105Z,9.80
2019-01-13T10:17:55.464Z,9.70
2019-01-13T10:20:23.923Z,9.80
2019-01-13T10:22:52.285Z,9.70
2019-01-13T10:25:20.609Z,9.80
2019-01-13T10:27:48.996Z,9.80
2019-01-13T10:30:25.487Z,9.80
2019-01-13T10:32:55.131Z,9.80
2019-01-13T10:35:24.197Z,9.90
2019-01-13T10:37:52.585Z,9.90
2019-01-13T10:40:26.068Z,9.90
2019-01-13T10:42:54.408Z,9.90
2019-01-13T10:45:22.708Z,9.90
2019-01-13T10:47:51.010Z,9.90
2019-01-13T10:50:22.209Z,9.90
2019-01-13T10:52:50.780Z,9.90
2019-01-13T10:55:19.157Z,9.90
2019-01-13T10:57:47.449Z,9.90
2019-01-13T11:00:24.621Z,9.90
2019-01-13T11:02:52.965Z,9.90
2019-01-13T11:05:21.378Z,10.00
2019-01-13T11:07:50.578Z,10.00
2019-01-13T11:10:18.889Z,10.00
2019-01-13T11:12:47.306Z,10.00
2019-01-13T11:15:21.546Z,9.90
2019-01-13T11:17:47.025Z,9.90
2019-01-13T11:20:18.602Z,9.90
2019-01-13T11:22:46.908Z,9.90
2019-01-13T11:25:15.486Z,9.80
2019-01-13T11:27:43.899Z,9.80
2019-01-13T11:30:15.630Z,9.90
2019-01-13T11:32:43.995Z,9.80
2019-01-13T11:35:13.410Z,9.80
2019-01-13T11:37:43.398Z,9.80
2019-01-13T11:40:14.935Z,9.80
2019-01-13T11:42:43.298Z,9.80
2019-01-13T11:45:12.138Z,9.80
2019-01-13T11:47:40.412Z,9.70
2019-01-13T11:50:14.545Z,9.70
2019-01-13T11:52:42.903Z,9.70
2019-01-13T11:55:13.445Z,9.60
2019-01-13T11:57:41.790Z,9.60
2019-01-13T12:00:15.869Z,9.60
2019-01-13T12:02:44.276Z,9.60
2019-01-13T12:05:12.666Z,9.50
2019-01-13T12:07:41.027Z,9.40
2019-01-13T12:10:14.016Z,9.40
2019-01-13T12:12:42.504Z,9.40
2019-01-13T12:15:13.135Z,9.40
2019-01-13T12:17:41.447Z,9.40
2019-01-13T12:20:15.498Z,9.40
2019-01-13T12:22:43.865Z,9.30
2019-01-13T12:25:14.716Z,9.40
2019-01-13T12:27:43.071Z,9.40
2019-01-13T12:30:17.560Z,9.30
2019-01-13T12:32:45.932Z,9.30
2019-01-13T12:35:14.297Z,9.30
2019-01-13T12:37:42.649Z,9.30
2019-01-13T12:40:14.209Z,9.30
2019-01-13T12:42:42.720Z,9.30
2019-01-13T12:45:14.056Z,9.20
2019-01-13T12:47:42.722Z,9.10
2019-01-13T12:50:17.365Z,9.10
2019-01-13T12:52:45.676Z,9.10
2019-01-13T12:55:14.049Z,9.00
2019-01-13T12:57:42.347Z,9.00
2019-01-13T13:00:16.051Z,9.00
2019-01-13T13:02:44.417Z,9.00
2019-01-13T13:05:13.673Z,9.00
2019-01-13T13:07:42.047Z,9.00
2019-01-13T13:10:23.088Z,8.90
2019-01-13T13:12:51.455Z,8.90
2019-01-13T13:15:19.870Z,9.00
2019-01-13T13:17:48.240Z,9.00
2019-01-13T13:20:16.893Z,9.00
2019-01-13T13:22:45.316Z,9.10
2019-01-13T13:25:15.352Z,9.10
2019-01-13T13:27:43.729Z,9.10
2019-01-13T13:30:21.116Z,9.20
2019-01-13T13:32:49.503Z,9.20
2019-01-13T13:35:17.905Z,9.20
2019-01-13T13:37:46.336Z,9.30
2019-01-13T13:40:25.806Z,9.30
2019-01-13T13:42:54.185Z,9.30
2019-01-13T13:45:22.526Z,9.40
2019-01-13T13:47:50.916Z,9.40
2019-01-13T13:50:21.303Z,9.40
2019-01-13T13:52:49.621Z,9.50
2019-01-13T13:55:17.999Z,9.50
2019-01-13T13:57:46.402Z,9.60
2019-01-13T14:00:23.560Z,9.60
2019-01-13T14:02:51.937Z,9.60
2019-01-13T14:05:20.288Z,9.70
2019-01-13T14:07:48.666Z,9.70
2019-01-13T14:10:22.581Z,9.70
2019-01-13T14:12:50.961Z,9.80
2019-01-13T14:15:19.313Z,9.80
2019-01-13T14:17:47.624Z,9.80
2019-01-13T14:20:18.139Z,9.80
2019-01-13T14:22:46.497Z,9.80
2019-01-13T14:25:14.855Z,9.90
2019-01-13T14:27:43.276Z,9.90
2019-01-13T14:30:21.051Z,9.90
2019-01-13T14:32:49.469Z,9.90
2019-01-13T14:35:17.761Z,9.90
2019-01-13T14:37:46.060Z,9.90
2019-01-13T14:40:22.269Z,9.90
2019-01-13T14:42:50.649Z,9.90
2019-01-13T14:45:21.007Z,9.90
2019-01-13T14:47:49.315Z,9.90
2019-01-13T14:50:39.718Z,9.90
2019-01-13T14:53:08.215Z,9.90
2019-01-13T14:55:36.587Z,9.90
2019-01-13T14:58:04.933Z,9.90
2019-01-13T15:00:33.294Z,9.90
2019-01-13T15:03:01.699Z,9.90
2019-01-13T15:05:30.071Z,9.90
2019-01-13T15:07:58.466Z,9.90
2019-01-13T15:10:26.853Z,9.90
2019-01-13T15:12:55.335Z,9.90
2019-01-13T15:15:23.837Z,9.90
2019-01-13T15:17:52.143Z,9.90
2019-01-13T15:20:21.901Z,9.90
2019-01-13T15:22:51.572Z,9.90
2019-01-13T15:25:25.624Z,9.90
2019-01-13T15:27:54.031Z,9.90
2019-01-13T15:30:25.098Z,9.90
2019-01-13T15:32:53.495Z,9.90
2019-01-13T15:35:21.856Z,9.90
2019-01-13T15:37:50.278Z,9.90
2019-01-13T15:40:20.449Z,9.90
2019-01-13T15:42:48.823Z,10.00
2019-01-13T15:45:17.196Z,10.00
2019-01-13T15:47:45.743Z,10.00
2019-01-13T15:50:16.495Z,10.00
2019-01-13T15:52:44.888Z,10.10
2019-01-13T15:55:13.267Z,10.10
2019-01-13T15:57:41.643Z,10.20
2019-01-13T16:00:18.758Z,10.20
2019-01-13T16:02:47.194Z,10.30
2019-01-13T16:05:15.550Z,10.30
2019-01-13T16:07:43.947Z,10.40
2019-01-13T16:10:20.612Z,10.40
2019-01-13T16:12:49.012Z,10.40
2019-01-13T16:15:17.391Z,10.50
2019-01-13T16:17:45.699Z,10.50
2019-01-13T16:20:17.333Z,10.50
2019-01-13T16:22:45.743Z,10.50
2019-01-13T16:25:14.147Z,10.50
2019-01-13T16:27:42.526Z,10.60
2019-01-13T16:30:19.894Z,10.50
2019-01-13T16:32:48.205Z,10.60
2019-01-13T16:35:16.577Z,10.60
2019-01-13T16:37:45.030Z,10.60
2019-01-13T16:40:18.264Z,10.70
2019-01-13T16:42:46.639Z,10.70
2019-01-13T16:45:16.291Z,10.70
2019-01-13T16:47:44.684Z,10.80
2019-01-13T16:50:18.291Z,10.80
2019-01-13T16:52:48.990Z,10.80
2019-01-13T16:55:17.341Z,10.80
2019-01-13T16:57:45.691Z,10.90
2019-01-13T17:00:17.488Z,10.90
2019-01-13T17:02:45.822Z,10.90
2019-01-13T17:05:16.220Z,10.90
2019-01-13T17:07:44.600Z,11.00
2019-01-13T17:10:15.122Z,11.00
2019-01-13T17:12:43.445Z,11.00
2019-01-13T17:15:14.295Z,11.00
2019-01-13T17:17:42.691Z,11.00
2019-01-13T17:20:15.918Z,11.00
2019-01-13T17:22:44.246Z,11.10
2019-01-13T17:25:15.335Z,11.10
2019-01-13T17:27:43.683Z,11.10
2019-01-13T17:30:15.398Z,11.10
2019-01-13T17:32:43.773Z,11.10
2019-01-13T17:35:12.065Z,11.00
2019-01-13T17:37:40.459Z,11.00
2019-01-13T17:40:14.144Z,11.10
2019-01-13T17:42:42.535Z,11.10
2019-01-13T17:45:17.108Z,11.20
2019-01-13T17:47:46.224Z,11.20
2019-01-13T17:50:16.574Z,11.20
2019-01-13T17:52:44.953Z,11.20
2019-01-13T17:55:15.686Z,11.30
2019-01-13T17:57:44.070Z,11.30
2019-01-13T18:00:34.006Z,11.30
2019-01-13T18:03:05.605Z,11.30
2019-01-13T18:05:33.912Z,11.30
2019-01-13T18:08:02.288Z,11.30
2019-01-13T18:10:30.667Z,11.40
2019-01-13T18:12:59.065Z,11.40
2019-01-13T18:15:27.420Z,11.40
2019-01-13T18:17:55.715Z,11.40
2019-01-13T18:20:24.018Z,11.30
2019-01-13T18:22:52.421Z,11.40
2019-01-13T18:25:20.954Z,11.40
2019-01-13T18:27:49.383Z,11.40
2019-01-13T18:30:23.421Z,11.40
2019-01-13T18:32:51.796Z,11.40
2019-01-13T18:35:21.498Z,11.40
2019-01-13T18:37:49.883Z,11.40
2019-01-13T18:40:20.249Z,11.40
2019-01-13T18:42:48.557Z,11.40
2019-01-13T18:45:16.929Z,11.40
2019-01-13T18:47:45.581Z,11.50
2019-01-13T18:50:24.022Z,11.50
2019-01-13T18:53:04.817Z,11.40
2019-01-13T18:55:33.189Z,11.50
2019-01-13T18:58:01.603Z,11.50
2019-01-13T19:00:29.950Z,11.50
2019-01-13T19:02:58.356Z,11.50
2019-01-13T19:05:28.148Z,11.50
2019-01-13T19:07:56.591Z,11.40
2019-01-13T19:10:48.997Z,11.50
2019-01-13T19:13:29.308Z,11.50
2019-01-13T19:15:58.705Z,11.50
2019-01-13T19:18:26.997Z,11.40
2019-01-13T19:20:55.356Z,11.40
2019-01-13T19:23:25.483Z,11.40
2019-01-13T19:25:53.866Z,11.40
2019-01-13T19:28:22.230Z,11.40
2019-01-13T19:30:50.556Z,11.50
2019-01-13T19:33:18.934Z,11.50
2019-01-13T19:35:47.368Z,11.50
2019-01-13T19:38:15.672Z,11.50
2019-01-13T19:40:44.049Z,11.50
2019-01-13T19:43:12.431Z,11.50
2019-01-13T19:45:40.806Z,11.50
2019-01-13T19:48:09.126Z,11.50
2019-01-13T19:50:37.531Z,11.50
2019-01-13T19:53:05.919Z,11.50
2019-01-13T19:55:34.309Z,11.60
2019-01-13T19:58:02.824Z,11.70
2019-01-13T20:00:32.919Z,11.70
2019-01-13T20:03:01.336Z,11.60
2019-01-13T20:05:29.722Z,11.70
2019-01-13T20:07:58.158Z,11.70
2019-01-13T20:10:26.701Z,11.70
2019-01-13T20:12:55.084Z,11.70
2019-01-13T20:15:26.117Z,11.70
2019-01-13T20:17:54.520Z,11.70
2019-01-13T20:20:22.853Z,11.70
2019-01-13T20:22:51.262Z,11.60
2019-01-13T20:25:19.813Z,11.70
2019-01-13T20:27:48.237Z,11.60
2019-01-13T20:30:28.090Z,11.60
2019-01-13T20:32:57.809Z,11.60
2019-01-13T20:35:26.332Z,11.60
2019-01-13T20:37:54.728Z,11.60
2019-01-13T20:40:23.088Z,11.60
2019-01-13T20:42:51.401Z,11.50
2019-01-13T20:45:28.875Z,11.50
2019-01-13T20:47:57.269Z,11.50
2019-01-13T20:50:25.569Z,11.50
2019-01-13T20:52:53.956Z,11.50
2019-01-13T20:55:22.273Z,11.50
2019-01-13T20:57:50.678Z,11.50
2019-01-13T21:00:21.789Z,11.50
2019-01-13T21:02:50.236Z,11.50
2019-01-13T21:05:18.601Z,11.40
2019-01-13T21:07:47.074Z,11.50
2019-01-13T21:10:19.085Z,11.50
2019-01-13T21:12:47.477Z,11.50
2019-01-13T21:15:29.274Z,11.50
2019-01-13T21:17:57.961Z,11.50
2019-01-13T21:20:26.702Z,11.50
2019-01-13T21:22:55.074Z,11.50
2019-01-13T21:25:23.402Z,11.40
2019-01-13T21:27:52.292Z,11.40
2019-01-13T21:30:23.216Z,11.30
2019-01-13T21:32:51.591Z,11.30
2019-01-13T21:35:19.942Z,11.30
2019-01-13T21:37:48.245Z,11.30
2019-01-13T21:40:16.873Z,11.20
2019-01-13T21:42:45.178Z,11.20
2019-01-13T21:45:16.094Z,11.20
2019-01-13T21:47:47.435Z,11.10
2019-01-13T21:50:17.828Z,11.10
2019-01-13T21:52:46.239Z,11.00
2019-01-13T21:55:16.445Z,11.00
2019-01-13T21:57:44.773Z,11.00
2019-01-13T22:00:22.638Z,11.00
2019-01-13T22:02:51.029Z,11.00
2019-01-13T22:05:19.395Z,11.00
2019-01-13T22:07:47.796Z,11.00
2019-01-13T22:10:20.959Z,11.00
2019-01-13T22:12:49.359Z,11.00
2019-01-13T22:15:19.365Z,10.90
2019-01-13T22:17:47.852Z,10.90
2019-01-13T22:20:18.824Z,10.90
2019-01-13T22:22:47.190Z,10.90
2019-01-13T22:25:15.815Z,10.90
2019-01-13T22:27:44.151Z,10.70
2019-01-13T22:30:15.467Z,10.70
2019-01-13T22:32:43.853Z,10.70
2019-01-13T22:35:12.306Z,10.60
2019-01-13T22:37:40.719Z,10.60
2019-01-13T22:40:11.827Z,10.60
2019-01-13T22:42:40.222Z,10.60
2019-01-13T22:45:11.229Z,10.60
2019-01-13T22:47:39.630Z,10.60
2019-01-13T22:50:12.697Z,10.60
2019-01-13T22:52:41.030Z,10.60
2019-01-13T22:55:30.454Z,10.60
2019-01-13T22:57:58.810Z,10.60
2019-01-13T23:00:48.781Z,10.60
2019-01-13T23:03:17.176Z,10.60
2019-01-13T23:05:45.646Z,10.70
2019-01-13T23:08:14.030Z,10.70
2019-01-13T23:10:42.522Z,10.70
2019-01-13T23:13:10.887Z,10.70
2019-01-13T23:15:39.276Z,10.70
2019-01-13T23:18:07.646Z,10.70
2019-01-13T23:20:35.977Z,10.70
2019-01-13T23:23:04.372Z,10.60
2019-01-13T23:25:32.899Z,10.70
2019-01-13T23:28:01.262Z,10.70
2019-01-13T23:30:29.630Z,10.70
2019-01-13T23:32:57.922Z,10.70
2019-01-13T23:35:26.271Z,10.70
2019-01-13T23:37:54.638Z,10.70
2019-01-13T23:40:23.000Z,10.70
2019-01-13T23:42:51.461Z,10.60
2019-01-13T23:45:19.814Z,10.70
2019-01-13T23:47:48.134Z,10.60
2019-01-13T23:50:16.598Z,10.60
2019-01-13T23:52:45.054Z,10.60
2019-01-13T23:55:13.390Z,10.60
2019-01-13T23:57:41.782Z,10.60
